Decoded Metar for LETL (TERUEL in SPAIN) (IATA:N/A) | Meteo·Mobile Aviation Weather
aviador You're here:

LETL Decoded Metar

TERUEL in SPAIN
Report Time2019-11-14 11:00:00
UTC Time2019-11-14 11:17:49
Flight Rules vfr VFR
Wind200° at 04 kt
Visibility9999 m
Phenomena:N/A
Clouds:N/A
Expected CloudBase > 800 ft AGL from Temp-Dew spread
CeilingNone
Temp02°C (ISA -6)
Dew Point00°C (87% RH)
AAT-1.4°C
QNH1001 hPa
Density Alt3,110 ft
Elevation3,367 ft
Report Wrong Elevation
Raw Report
METAR LETL 141100Z AUTO 20004KT 080V250 CAVOK 02/M00 Q1001=

Extra information for LETL:More info

Metar Taf Metar & Taf Last 4 Metars F.Rules Stats Wind Profile Meteogram Temp Stats Airport Information Weather charts Add Link Nearby VenuesMetar ALERT Operation Metar Decoded Social comments